Weather History for KLRU - April, 2013

Change the Weather History Date:

Monday, April 22, 2013

  Actual Average Record
Temperature  
Mean Temperature 70 °F -  
Max Temperature 86 °F 74 °F 91 °F (2006)
Min Temperature 54 °F 46 °F 35 °F (2007)
Cooling Degree Days 5    
Growing Degree Days 20 (Base 50)    
Moisture  
Dew Point 10 °F    
Average Humidity 10    
Maximum Humidity 15    
Minimum Humidity 6    
Precipitation  
Precipitation 0.00 in - - ()
Sea Level Pressure  
Sea Level Pressure 29.99 in    
Wind  
Wind Speed 11 mph (West)    
Max Wind Speed 24 mph    
Max Gust Speed 36 mph    
Visibility 10 miles    
Events      
Averages and records for this station are not official NWS values.
T = Trace of Precipitation, MM = Missing Value Source: NWS Daily Summary

Daily Weather History Graph

Daily Weather History Graph

Search for Another Location

Airport or City:

Trip Planner

Search our weather history database for the weather conditions in past years. The results will help you decide how hot, cold, wet, or windy it might be!

Date:

Astronomy

Apr. 22, 2013 Rise Set
Actual Time 6:30 AM MDT 7:42 PM MDT
Civil Twilight 6:04 AM MDT 8:08 PM MDT
Nautical Twilight 5:34 AM MDT 8:38 PM MDT
Astronomical Twilight 5:02 AM MDT 9:10 PM MDT
Moon 4:44 PM MDT (4/22) 4:14 AM MDT (4/22)
Length of Visible Light 14h 03m
Length of Day
13h 12m
Waxing Gibbous, 88% of the Moon is Illuminated
Apr 22
Waxing Gibbous
Apr 25
Full
May 2
Last Quarter
May 9
New
May 17
First Quarter

Hourly Weather History & Observations

Time (MDT) Temp. Dew Point Humidity Pressure Visibility Wind Dir Wind Speed Gust Speed Precip Events Conditions
12:15 AM 64.2 °F 8.2 °F 11% 30.03 in 10.0 mi West 11.5 mph - N/A   Clear
12:35 AM 63.0 °F 7.7 °F 11% 30.03 in 10.0 mi West 12.7 mph - N/A   Clear
12:55 AM 61.7 °F 7.5 °F 12% 30.03 in 10.0 mi WNW 6.9 mph - N/A   Clear
1:15 AM 59.0 °F 6.8 °F 13% 30.03 in 10.0 mi NW 10.4 mph - N/A   Clear
1:35 AM 57.9 °F 6.8 °F 13% 30.03 in 10.0 mi WNW 8.1 mph - N/A   Clear
1:55 AM 58.1 °F 7.2 °F 13% 30.03 in 10.0 mi West 9.2 mph - N/A   Clear
2:15 AM 58.5 °F 7.0 °F 13% 30.03 in 10.0 mi West 11.5 mph - N/A   Clear
2:35 AM 60.6 °F 8.1 °F 12% 30.03 in 10.0 mi WNW 9.2 mph - N/A   Clear
2:55 AM 55.4 °F 6.3 °F 14% 30.02 in 10.0 mi WNW 6.9 mph - N/A   Clear
3:15 AM 54.0 °F 5.9 °F 14% 30.03 in 10.0 mi West 10.4 mph - N/A   Clear
3:35 AM 54.5 °F 6.1 °F 14% 30.03 in 10.0 mi WNW 6.9 mph - N/A   Clear
3:55 AM 55.6 °F 6.8 °F 14% 30.03 in 10.0 mi West 11.5 mph - N/A   Clear
4:15 AM 56.1 °F 7.3 °F 14% 30.03 in 10.0 mi WNW 10.4 mph - N/A   Clear
4:35 AM 54.9 °F 6.8 °F 15% 30.03 in 10.0 mi West 10.4 mph - N/A   Clear
4:55 AM 54.5 °F 6.8 °F 15% 30.03 in 10.0 mi West 10.4 mph - N/A   Clear
5:15 AM 54.5 °F 7.2 °F 15% 30.04 in 10.0 mi West 12.7 mph - N/A   Clear
5:35 AM 54.5 °F 7.5 °F 15% 30.04 in 10.0 mi West 11.5 mph - N/A   Clear
5:55 AM 54.9 °F 7.7 °F 15% 30.04 in 10.0 mi West 12.7 mph - N/A   Clear
6:15 AM 56.5 °F 8.6 °F 15% 30.04 in 10.0 mi West 13.8 mph - N/A   Clear
6:35 AM 55.9 °F 8.6 °F 15% 30.04 in 10.0 mi WNW 10.4 mph - N/A   Clear
6:55 AM 56.3 °F 9.3 °F 15% 30.05 in 10.0 mi WNW 13.8 mph - N/A   Clear
7:15 AM 57.4 °F 9.7 °F 15% 30.06 in 10.0 mi West 10.4 mph - N/A   Clear
7:35 AM 57.4 °F 9.3 °F 15% 30.07 in 10.0 mi Calm Calm - N/A   Clear
7:55 AM 59.2 °F 10.4 °F 15% 30.08 in 10.0 mi East 4.6 mph - N/A   Clear
8:15 AM 60.3 °F 10.4 °F 14% 30.09 in 10.0 mi East 3.5 mph - N/A   Clear
8:35 AM 61.5 °F 10.8 °F 14% 30.09 in 10.0 mi Calm Calm - N/A   Clear
8:55 AM 64.9 °F 12.0 °F 13% 30.09 in 10.0 mi East 4.6 mph - N/A   Clear
9:15 AM 66.9 °F 11.3 °F 12% 30.09 in 10.0 mi West 4.6 mph - N/A   Clear
9:35 AM 67.5 °F 11.8 °F 12% 30.09 in 10.0 mi Calm Calm - N/A   Clear
9:55 AM 69.3 °F 12.2 °F 11% 30.08 in 10.0 mi Calm Calm - N/A   Clear
10:15 AM 71.2 °F 12.9 °F 11% 30.08 in 10.0 mi SSE 3.5 mph - N/A   Clear
10:35 AM 72.5 °F 13.3 °F 10% 30.08 in 10.0 mi ENE 3.5 mph - N/A   Clear
10:55 AM 74.3 °F 14.2 °F 10% 30.08 in 10.0 mi South 3.5 mph - N/A   Clear
11:15 AM 77.9 °F 14.4 °F 9% 30.07 in 10.0 mi WSW 12.7 mph 16.1 mph N/A   Clear
11:35 AM 78.6 °F 14.2 °F 9% 30.06 in 10.0 mi WSW 16.1 mph 19.6 mph N/A   Clear
11:55 AM 80.1 °F 14.2 °F 8% 30.05 in 10.0 mi West 15.0 mph 24.2 mph N/A   Clear
12:15 PM 79.5 °F 14.4 °F 9% 30.04 in 10.0 mi West 18.4 mph 23.0 mph N/A   Clear
12:35 PM 81.1 °F 13.1 °F 8% 30.03 in 10.0 mi West 18.4 mph 27.6 mph N/A   Clear
12:55 PM 82.2 °F 13.1 °F 7% 30.01 in 10.0 mi WSW 24.2 mph 33.4 mph N/A   Clear
1:15 PM 82.4 °F 12.4 °F 7% 30.00 in 10.0 mi West 19.6 mph 29.9 mph N/A   Clear
1:35 PM 82.8 °F 11.1 °F 7% 29.99 in 10.0 mi West 19.6 mph 35.7 mph N/A   Clear
1:55 PM 83.3 °F 12.7 °F 7% 29.98 in 10.0 mi SW 20.7 mph 26.5 mph N/A   Clear
2:15 PM 83.7 °F 12.7 °F 7% 29.97 in 10.0 mi WSW 23.0 mph 29.9 mph N/A   Clear
2:35 PM 84.6 °F 11.7 °F 6% 29.96 in 10.0 mi West 24.2 mph 28.8 mph N/A   Clear
2:55 PM 84.7 °F 12.2 °F 7% 29.95 in 10.0 mi West 16.1 mph 28.8 mph N/A   Clear
3:15 PM 84.9 °F 12.0 °F 7% 29.95 in 10.0 mi West 18.4 mph 26.5 mph N/A   Clear
3:35 PM 85.1 °F 11.7 °F 6% 29.94 in 10.0 mi West 23.0 mph 27.6 mph N/A   Clear
3:55 PM 85.6 °F 11.8 °F 6% 29.92 in 10.0 mi WSW 21.9 mph 31.1 mph N/A   Clear
4:15 PM 86.0 °F 12.9 °F 7% 29.91 in 10.0 mi WSW 19.6 mph 31.1 mph N/A   Clear
4:35 PM 85.6 °F 12.9 °F 7% 29.90 in 10.0 mi West 17.3 mph 28.8 mph N/A   Clear
4:55 PM 86.0 °F 12.4 °F 6% 29.90 in 10.0 mi West 20.7 mph 31.1 mph N/A   Clear
5:15 PM 85.8 °F 12.0 °F 6% 29.89 in 10.0 mi West 20.7 mph 27.6 mph N/A   Clear
5:35 PM 84.9 °F 12.2 °F 7% 29.88 in 10.0 mi West 24.2 mph 35.7 mph N/A   Clear
5:55 PM 84.2 °F 11.7 °F 7% 29.88 in 10.0 mi West 24.2 mph 32.2 mph N/A   Clear
6:15 PM 83.8 °F 11.7 °F 7% 29.88 in 10.0 mi West 24.2 mph 29.9 mph N/A   Clear
6:35 PM 83.1 °F 11.3 °F 7% 29.88 in 10.0 mi West 21.9 mph 33.4 mph N/A   Clear
6:55 PM 82.4 °F 11.1 °F 7% 29.88 in 10.0 mi West 23.0 mph 32.2 mph N/A   Clear
7:15 PM 81.3 °F 11.1 °F 7% 29.88 in 10.0 mi West 20.7 mph 29.9 mph N/A   Clear
7:35 PM 79.7 °F 11.3 °F 7% 29.88 in 10.0 mi West 17.3 mph - N/A   Clear
7:55 PM 77.9 °F 11.3 °F 8% 29.88 in 10.0 mi West 13.8 mph - N/A   Clear
8:15 PM 76.3 °F 10.8 °F 8% 29.88 in 10.0 mi West 9.2 mph - N/A   Clear
8:35 PM 73.8 °F 10.2 °F 9% 29.90 in 10.0 mi West 5.8 mph - N/A   Clear
8:55 PM 73.4 °F 9.9 °F 9% 29.90 in 10.0 mi WSW 4.6 mph - N/A   Clear
9:15 PM 72.9 °F 9.5 °F 9% 29.90 in 10.0 mi West 4.6 mph - N/A   Clear
9:35 PM 70.7 °F 9.1 °F 9% 29.91 in 10.0 mi West 4.6 mph - N/A   Clear
9:55 PM 69.4 °F 8.4 °F 9% 29.91 in 10.0 mi West 6.9 mph - N/A   Clear
10:15 PM 67.5 °F 7.7 °F 10% 29.91 in 10.0 mi West 9.2 mph - N/A   Clear
10:35 PM 66.2 °F 7.7 °F 10% 29.91 in 10.0 mi WNW 8.1 mph - N/A   Clear
10:55 PM 63.3 °F 7.0 °F 11% 29.92 in 10.0 mi West 8.1 mph - N/A   Clear
11:15 PM 62.6 °F 6.8 °F 11% 29.92 in 10.0 mi West 9.2 mph - N/A   Clear
11:35 PM 61.0 °F 6.3 °F 11% 29.92 in 10.0 mi WSW 6.9 mph - N/A   Clear
11:55 PM 61.7 °F 7.3 °F 12% 29.92 in 10.0 mi WSW 8.1 mph - N/A   Clear